createdAt,value
2022-08-03T00:02:19.061Z,100853.29
2022-08-03T00:04:47.817Z,100857.23
2022-08-03T00:07:16.544Z,100857.58
2022-08-03T00:09:44.810Z,100858.93
2022-08-03T00:12:13.298Z,100858.79
2022-08-03T00:14:42.470Z,100865.46
2022-08-03T00:17:10.779Z,100864.73
2022-08-03T00:19:38.975Z,100861.14
2022-08-03T00:22:07.555Z,100864.42
2022-08-03T00:24:35.971Z,100864.70
2022-08-03T00:27:04.368Z,100864.77
2022-08-03T00:29:33.090Z,100866.48
2022-08-03T00:32:21.402Z,100863.12
2022-08-03T00:34:57.519Z,100861.13
2022-08-03T00:37:40.764Z,100859.34
2022-08-03T00:40:13.923Z,100857.87
2022-08-03T00:42:50.413Z,100861.17
2022-08-03T00:45:19.400Z,100861.89
2022-08-03T00:47:47.908Z,100864.51
2022-08-03T00:50:17.523Z,100859.88
2022-08-03T00:52:46.734Z,100863.16
2022-08-03T00:55:15.320Z,100863.19
2022-08-03T00:57:43.825Z,100863.51
2022-08-03T01:00:15.092Z,100861.20
2022-08-03T01:02:43.307Z,100860.66
2022-08-03T01:05:12.317Z,100862.55
2022-08-03T01:08:02.202Z,100865.14
2022-08-03T01:10:37.343Z,100867.12
2022-08-03T01:14:01.433Z,100867.86
2022-08-03T01:16:14.555Z,100869.42
2022-08-03T01:18:47.403Z,100870.51
2022-08-03T01:21:20.724Z,100868.19
2022-08-03T01:24:02.292Z,100865.22
2022-08-03T01:26:55.275Z,100869.55
2022-08-03T01:29:51.817Z,100871.06
2022-08-03T01:32:52.446Z,100868.02
2022-08-03T01:35:12.865Z,100869.66
2022-08-03T01:37:43.807Z,100869.95
2022-08-03T01:40:13.587Z,100871.21
2022-08-03T01:42:42.698Z,100869.04
2022-08-03T01:45:13.387Z,100868.80
2022-08-03T01:47:42.518Z,100868.56
2022-08-03T01:50:12.157Z,100867.02
2022-08-03T01:52:42.112Z,100863.97
2022-08-03T01:55:11.971Z,100860.85
2022-08-03T01:58:05.439Z,100859.89
2022-08-03T02:00:30.492Z,100855.83
2022-08-03T02:02:58.981Z,100856.22
2022-08-03T02:05:27.918Z,100853.73
2022-08-03T02:07:57.159Z,100851.05
2022-08-03T02:10:35.606Z,100853.73
2022-08-03T02:13:07.037Z,100852.55
2022-08-03T02:15:36.909Z,100854.05
2022-08-03T02:18:07.716Z,100849.38
2022-08-03T02:20:38.361Z,100850.34
2022-08-03T02:23:07.221Z,100846.30
2022-08-03T02:25:41.625Z,100841.88
2022-08-03T02:28:13.487Z,100843.99
2022-08-03T02:30:44.061Z,100839.56
2022-08-03T02:33:17.234Z,100844.39
2022-08-03T02:35:45.978Z,100840.62
2022-08-03T02:38:15.306Z,100842.86
2022-08-03T02:40:44.964Z,100845.27
2022-08-03T02:43:18.415Z,100848.96
2022-08-03T02:45:49.488Z,100853.05
2022-08-03T02:48:20.455Z,100850.14
2022-08-03T02:50:49.110Z,100852.41
2022-08-03T02:53:18.239Z,100857.15
2022-08-03T02:55:48.858Z,100858.17
2022-08-03T02:58:20.715Z,100858.42
2022-08-03T03:00:49.381Z,100855.76
2022-08-03T03:03:17.917Z,100855.20
2022-08-03T03:05:52.665Z,100856.05
2022-08-03T03:08:28.608Z,100854.59
2022-08-03T03:10:59.917Z,100858.70
2022-08-03T03:13:29.353Z,100863.65
2022-08-03T03:16:00.771Z,100863.81
2022-08-03T03:18:29.738Z,100863.23
2022-08-03T03:20:58.840Z,100865.36
2022-08-03T03:23:28.503Z,100870.48
2022-08-03T03:25:58.367Z,100872.11
2022-08-03T03:28:27.462Z,100869.90
2022-08-03T03:30:55.739Z,100874.63
2022-08-03T03:33:24.223Z,100869.89
2022-08-03T03:35:52.531Z,100865.61
2022-08-03T03:38:21.083Z,100868.65
2022-08-03T03:40:49.759Z,100867.29
2022-08-03T03:43:18.396Z,100870.14
2022-08-03T03:45:48.194Z,100870.17
2022-08-03T03:48:16.612Z,100870.83
2022-08-03T03:50:45.449Z,100871.75
2022-08-03T03:53:14.352Z,100876.05
2022-08-03T03:55:58.937Z,100874.05
2022-08-03T03:58:32.217Z,100877.97
2022-08-03T04:01:00.927Z,100877.80
2022-08-03T04:03:29.895Z,100876.11
2022-08-03T04:06:17.004Z,100882.35
2022-08-03T04:09:03.691Z,100884.89
2022-08-03T04:11:36.687Z,100887.67
2022-08-03T04:14:08.311Z,100890.13
2022-08-03T04:16:43.657Z,100890.47
2022-08-03T04:19:18.550Z,100895.42
2022-08-03T04:21:53.164Z,100896.30
2022-08-03T04:24:26.885Z,100897.20
2022-08-03T04:26:56.967Z,100901.02
2022-08-03T04:29:26.751Z,100900.88
2022-08-03T04:31:55.819Z,100908.69
2022-08-03T04:34:24.230Z,100910.34
2022-08-03T04:36:56.475Z,100912.77
2022-08-03T04:39:26.464Z,100914.27
2022-08-03T04:42:07.344Z,100914.75
2022-08-03T04:44:39.208Z,100914.11
2022-08-03T04:47:07.719Z,100917.49
2022-08-03T04:49:37.229Z,100915.84
2022-08-03T04:52:08.088Z,100919.86
2022-08-03T04:54:41.278Z,100921.34
2022-08-03T04:57:10.598Z,100922.86
2022-08-03T04:59:56.841Z,100921.63
2022-08-03T05:02:30.937Z,100918.06
2022-08-03T05:04:59.359Z,100920.23
2022-08-03T05:07:35.584Z,100924.81
2022-08-03T05:10:15.900Z,100920.50
2022-08-03T05:12:46.152Z,100922.14
2022-08-03T05:15:15.407Z,100928.36
2022-08-03T05:17:43.787Z,100929.58
2022-08-03T05:20:12.450Z,100929.48
2022-08-03T05:22:40.859Z,100934.13
2022-08-03T05:25:09.628Z,100933.37
2022-08-03T05:27:48.405Z,100937.28
2022-08-03T05:30:32.424Z,100934.92
2022-08-03T05:33:04.286Z,100933.38
2022-08-03T05:36:02.640Z,100939.20
2022-08-03T05:38:28.661Z,100937.33
2022-08-03T05:41:20.029Z,100943.11
2022-08-03T05:43:52.282Z,100941.98
2022-08-03T05:46:21.089Z,100949.30
2022-08-03T05:48:49.481Z,100947.23
2022-08-03T05:51:18.246Z,100944.20
2022-08-03T05:53:47.019Z,100951.83
2022-08-03T05:56:16.690Z,100950.52
2022-08-03T05:58:46.878Z,100949.64
2022-08-03T06:01:15.663Z,100951.86
2022-08-03T06:03:44.054Z,100951.48
2022-08-03T06:06:12.486Z,100955.73
2022-08-03T06:08:40.895Z,100957.16
2022-08-03T06:11:09.629Z,100959.09
2022-08-03T06:13:38.092Z,100962.64
2022-08-03T06:16:06.826Z,100964.15
2022-08-03T06:18:35.117Z,100965.21
2022-08-03T06:21:11.047Z,100965.95
2022-08-03T06:23:53.251Z,100965.35
2022-08-03T06:26:28.012Z,100963.48
2022-08-03T06:28:56.499Z,100960.48
2022-08-03T06:31:32.342Z,100961.40
2022-08-03T06:34:31.092Z,100960.23
2022-08-03T06:36:50.763Z,100961.66
2022-08-03T06:39:19.016Z,100956.56
2022-08-03T06:41:47.373Z,100958.34
2022-08-03T06:44:15.858Z,100961.36
2022-08-03T06:46:44.325Z,100960.05
2022-08-03T06:49:15.042Z,100961.55
2022-08-03T06:52:04.476Z,100962.19
2022-08-03T06:54:33.186Z,100963.48
2022-08-03T06:57:01.940Z,100964.27
2022-08-03T07:00:10.527Z,100963.45
2022-08-03T07:02:19.346Z,100963.49
2022-08-03T07:04:47.990Z,100962.17
2022-08-03T07:07:16.902Z,100964.48
2022-08-03T07:09:57.808Z,100968.59
2022-08-03T07:12:28.815Z,100969.10
2022-08-03T07:15:01.139Z,100973.52
2022-08-03T07:17:38.081Z,100981.80
2022-08-03T07:20:18.828Z,100976.73
2022-08-03T07:22:50.323Z,100978.60
2022-08-03T07:25:20.040Z,100978.95
2022-08-03T07:27:51.893Z,100977.30
2022-08-03T07:30:26.104Z,100974.91
2022-08-03T07:32:57.773Z,100975.11
2022-08-03T07:35:28.231Z,100967.41
2022-08-03T07:37:56.680Z,100973.08
2022-08-03T07:40:26.999Z,100971.48
2022-08-03T07:43:02.914Z,100971.53
2022-08-03T07:45:31.367Z,100974.17
2022-08-03T07:47:59.565Z,100974.30
2022-08-03T07:50:28.818Z,100969.80
2022-08-03T07:52:59.234Z,100973.59
2022-08-03T07:55:28.208Z,100971.25
2022-08-03T07:58:04.169Z,100972.50
2022-08-03T08:00:34.022Z,100974.38
2022-08-03T08:03:02.831Z,100972.96
2022-08-03T08:05:31.311Z,100972.41
2022-08-03T08:08:07.730Z,100972.52
2022-08-03T08:10:37.915Z,100975.08
2022-08-03T08:13:09.677Z,100974.55
2022-08-03T08:15:46.261Z,100978.85
2022-08-03T08:18:17.372Z,100980.89
2022-08-03T08:20:46.374Z,100978.69
2022-08-03T08:23:42.799Z,100983.45
2022-08-03T08:26:13.914Z,100981.48
2022-08-03T08:28:49.022Z,100979.05
2022-08-03T08:31:19.027Z,100978.89
2022-08-03T08:34:03.499Z,100978.50
2022-08-03T08:36:33.703Z,100979.10
2022-08-03T08:39:03.101Z,100982.05
2022-08-03T08:41:34.140Z,100981.86
2022-08-03T08:44:04.050Z,100981.20
2022-08-03T08:50:38.016Z,100986.11
2022-08-03T08:53:17.344Z,100983.45
2022-08-03T08:55:56.952Z,100979.41
2022-08-03T08:58:31.094Z,100978.77
2022-08-03T09:01:02.523Z,100975.89
2022-08-03T09:03:33.963Z,100977.30
2022-08-03T09:06:02.735Z,100973.13
2022-08-03T09:08:32.141Z,100973.19
2022-08-03T09:11:02.025Z,100969.21
2022-08-03T09:13:30.910Z,100972.91
2022-08-03T09:16:13.908Z,100973.45
2022-08-03T09:18:43.319Z,100972.30
2022-08-03T09:21:36.272Z,100969.50
2022-08-03T09:24:13.031Z,100973.15
2022-08-03T09:26:53.962Z,100970.75
2022-08-03T09:29:23.926Z,100972.37
2022-08-03T09:32:03.159Z,100969.41
2022-08-03T09:34:32.090Z,100968.11
2022-08-03T09:37:00.676Z,100970.41
2022-08-03T09:39:41.802Z,100969.31
2022-08-03T09:42:14.780Z,100971.67
2022-08-03T09:45:04.218Z,100969.94
2022-08-03T09:47:35.874Z,100971.84
2022-08-03T09:50:07.335Z,100973.30
2022-08-03T09:52:50.127Z,100971.02
2022-08-03T09:56:05.127Z,100972.81
2022-08-03T09:58:13.705Z,100970.02
2022-08-03T10:00:56.814Z,100967.38
2022-08-03T10:04:03.163Z,100963.34
2022-08-03T10:06:30.126Z,100959.88
2022-08-03T10:09:10.346Z,100958.55
2022-08-03T10:11:42.109Z,100961.58
2022-08-03T10:14:18.603Z,100960.67
2022-08-03T10:16:58.336Z,100956.42
2022-08-03T10:19:27.238Z,100959.41
2022-08-03T10:21:57.730Z,100960.27
2022-08-03T10:24:28.572Z,100961.66
2022-08-03T10:27:03.501Z,100957.58
2022-08-03T10:29:49.176Z,100955.39
2022-08-03T10:32:21.947Z,100956.77
2022-08-03T10:35:26.446Z,100961.16
2022-08-03T10:37:59.269Z,100954.49
2022-08-03T10:43:41.459Z,100953.13
2022-08-03T10:46:15.836Z,100955.20
2022-08-03T10:49:02.201Z,100953.81
2022-08-03T10:51:48.460Z,100953.73
2022-08-03T10:55:03.300Z,100955.27
2022-08-03T10:58:05.742Z,100948.73
2022-08-03T11:00:53.665Z,100954.02
2022-08-03T11:03:22.146Z,100952.29
2022-08-03T11:05:53.200Z,100949.73
2022-08-03T11:08:30.540Z,100948.71
2022-08-03T11:11:02.046Z,100947.58
2022-08-03T11:13:33.391Z,100944.00
2022-08-03T11:16:22.042Z,100944.42
2022-08-03T11:19:01.156Z,100941.02
2022-08-03T11:21:56.533Z,100943.95
2022-08-03T11:24:57.509Z,100942.75
2022-08-03T11:27:32.922Z,100937.95
2022-08-03T11:30:06.137Z,100937.76
2022-08-03T11:32:57.862Z,100936.98
2022-08-03T11:35:28.897Z,100931.88
2022-08-03T11:38:11.180Z,100928.12
2022-08-03T11:40:43.239Z,100927.59
2022-08-03T11:43:44.815Z,100928.04
2022-08-03T11:46:28.555Z,100924.92
2022-08-03T11:49:09.845Z,100919.85
2022-08-03T11:51:40.539Z,100922.19
2022-08-03T11:54:10.856Z,100923.34
2022-08-03T11:56:46.589Z,100922.75
2022-08-03T11:59:21.766Z,100922.30
2022-08-03T12:01:50.974Z,100915.61
2022-08-03T12:04:19.575Z,100910.38
2022-08-03T12:07:00.603Z,100909.53
2022-08-03T12:09:37.267Z,100912.23
2022-08-03T12:12:21.464Z,100910.20
2022-08-03T12:14:59.925Z,100908.55
2022-08-03T12:17:35.186Z,100906.17
2022-08-03T12:20:08.452Z,100907.85
2022-08-03T12:22:46.155Z,100906.80
2022-08-03T12:25:38.869Z,100900.73
2022-08-03T12:28:36.479Z,100901.77
2022-08-03T12:31:11.410Z,100902.38
2022-08-03T12:33:54.448Z,100900.48
2022-08-03T12:36:22.910Z,100903.08
2022-08-03T12:38:59.228Z,100900.20
2022-08-03T12:41:34.022Z,100896.33
2022-08-03T12:44:03.659Z,100896.49
2022-08-03T12:46:34.453Z,100893.89
2022-08-03T12:49:08.671Z,100891.61
2022-08-03T12:51:38.786Z,100887.74
2022-08-03T12:54:07.269Z,100886.38
2022-08-03T12:56:58.688Z,100888.97
2022-08-03T13:00:59.935Z,100887.31
2022-08-03T13:03:39.796Z,100881.17
2022-08-03T13:06:15.951Z,100879.42
2022-08-03T13:08:47.400Z,100876.68
2022-08-03T13:11:52.518Z,100872.83
2022-08-03T13:14:16.663Z,100868.46
2022-08-03T13:16:50.377Z,100865.88
2022-08-03T13:19:19.126Z,100862.79
2022-08-03T13:22:01.690Z,100865.79
2022-08-03T13:24:34.363Z,100864.98
2022-08-03T13:28:12.469Z,100868.39
2022-08-03T13:30:01.816Z,100861.16
2022-08-03T13:32:30.804Z,100865.38
2022-08-03T13:35:02.023Z,100858.96
2022-08-03T13:37:35.506Z,100860.54
2022-08-03T13:40:08.665Z,100858.73
2022-08-03T13:43:02.019Z,100854.87
2022-08-03T13:49:06.841Z,100861.48
2022-08-03T13:52:02.963Z,100854.67
2022-08-03T13:54:41.739Z,100852.85
2022-08-03T13:58:11.637Z,100853.77
2022-08-03T14:00:27.855Z,100851.86
2022-08-03T14:03:15.354Z,100852.00
2022-08-03T14:05:44.071Z,100855.39
2022-08-03T14:08:12.763Z,100853.14
2022-08-03T14:10:43.388Z,100849.98
2022-08-03T14:13:12.423Z,100848.28
2022-08-03T14:15:41.177Z,100845.29
2022-08-03T14:18:12.998Z,100846.80
2022-08-03T14:20:50.305Z,100842.67
2022-08-03T14:23:22.761Z,100842.67
2022-08-03T14:25:52.926Z,100835.79
2022-08-03T14:28:23.568Z,100832.86
2022-08-03T14:30:53.518Z,100833.40
2022-08-03T14:33:22.068Z,100833.90
2022-08-03T14:35:51.520Z,100830.81
2022-08-03T14:38:20.180Z,100825.30
2022-08-03T14:40:49.144Z,100825.90
2022-08-03T14:43:18.121Z,100822.41
2022-08-03T14:45:46.643Z,100825.00
2022-08-03T14:50:31.010Z,100819.95
2022-08-03T14:51:05.095Z,100819.52
2022-08-03T14:53:34.705Z,100817.64
2022-08-03T14:56:07.792Z,100821.14
2022-08-03T14:58:39.043Z,100823.56
2022-08-03T15:02:03.056Z,100819.41
2022-08-03T15:03:56.255Z,100818.84
2022-08-03T15:06:24.875Z,100816.51
2022-08-03T15:09:21.524Z,100820.40
2022-08-03T15:11:44.535Z,100816.89
2022-08-03T15:14:14.720Z,100817.35
2022-08-03T15:16:46.077Z,100819.39
2022-08-03T15:20:03.567Z,100815.94
2022-08-03T15:22:03.816Z,100818.48
2022-08-03T15:24:32.352Z,100815.55
2022-08-03T15:27:01.186Z,100814.73
2022-08-03T15:30:07.793Z,100809.58
2022-08-03T15:32:23.647Z,100811.17
2022-08-03T15:34:55.276Z,100807.58
2022-08-03T15:37:24.956Z,100803.24
2022-08-03T15:39:59.089Z,100801.36
2022-08-03T15:42:29.364Z,100800.95
2022-08-03T15:44:58.247Z,100800.02
2022-08-03T15:47:26.593Z,100797.73
2022-08-03T15:49:55.357Z,100794.16
2022-08-03T15:52:23.962Z,100793.70
2022-08-03T15:54:52.221Z,100793.82
2022-08-03T15:57:20.841Z,100789.98
2022-08-03T15:59:49.556Z,100788.31
2022-08-03T16:02:17.883Z,100787.43
2022-08-03T16:04:46.219Z,100778.81
2022-08-03T16:07:15.178Z,100778.73
2022-08-03T16:09:44.071Z,100778.69
2022-08-03T16:12:15.772Z,100780.13
2022-08-03T16:14:52.773Z,100773.38
2022-08-03T16:17:23.771Z,100767.50
2022-08-03T16:19:54.947Z,100766.11
2022-08-03T16:22:23.892Z,100768.05
2022-08-03T16:24:52.754Z,100768.84
2022-08-03T16:27:37.593Z,100769.80
2022-08-03T16:30:12.815Z,100768.41
2022-08-03T16:32:41.157Z,100770.81
2022-08-03T16:35:19.200Z,100767.13
2022-08-03T16:37:56.296Z,100770.83
2022-08-03T16:40:25.622Z,100768.23
2022-08-03T16:42:54.513Z,100761.94
2022-08-03T16:45:22.785Z,100764.50
2022-08-03T16:48:01.449Z,100762.45
2022-08-03T16:50:35.388Z,100762.34
2022-08-03T16:53:06.264Z,100765.13
2022-08-03T16:55:48.646Z,100762.17
2022-08-03T16:58:34.335Z,100766.89
2022-08-03T17:01:21.846Z,100770.27
2022-08-03T17:04:03.675Z,100768.41
2022-08-03T17:06:36.126Z,100770.91
2022-08-03T17:09:10.075Z,100773.78
2022-08-03T17:11:44.180Z,100774.27
2022-08-03T17:14:16.915Z,100773.94
2022-08-03T17:16:52.223Z,100776.14
2022-08-03T17:19:23.492Z,100776.54
2022-08-03T17:21:58.961Z,100780.27
2022-08-03T17:24:32.243Z,100781.98
2022-08-03T17:27:01.113Z,100783.80
2022-08-03T17:29:30.105Z,100784.63
2022-08-03T17:31:58.689Z,100787.11
2022-08-03T17:34:26.963Z,100788.23
2022-08-03T17:37:04.512Z,100794.29
2022-08-03T17:39:58.710Z,100793.46
2022-08-03T17:42:30.441Z,100795.40
2022-08-03T17:45:02.370Z,100798.73
2022-08-03T17:47:42.421Z,100799.61
2022-08-03T17:50:24.211Z,100804.41
2022-08-03T17:53:07.569Z,100808.61
2022-08-03T17:55:56.822Z,100815.41
2022-08-03T17:58:41.651Z,100819.64
2022-08-03T18:04:30.251Z,100818.14
2022-08-03T18:07:11.976Z,100821.19
2022-08-03T18:10:05.670Z,100826.60
2022-08-03T18:12:39.531Z,100826.73
2022-08-03T18:15:20.802Z,100832.52
2022-08-03T18:17:55.093Z,100833.85
2022-08-03T18:20:34.813Z,100836.58
2022-08-03T18:23:10.921Z,100838.74
2022-08-03T18:25:58.093Z,100837.98
2022-08-03T18:32:00.445Z,100846.50
2022-08-03T18:34:32.128Z,100849.46
2022-08-03T18:36:56.078Z,100858.39
2022-08-03T18:39:25.421Z,100856.98
2022-08-03T18:41:54.375Z,100860.95
2022-08-03T18:44:53.044Z,100860.80
2022-08-03T18:47:26.723Z,100866.46
2022-08-03T18:50:19.662Z,100872.34
2022-08-03T18:52:54.712Z,100875.05
2022-08-03T18:55:33.602Z,100877.66
2022-08-03T18:58:17.533Z,100880.24
2022-08-03T19:00:56.557Z,100882.16
2022-08-03T19:03:42.951Z,100880.17
2022-08-03T19:06:19.646Z,100881.94
2022-08-03T19:09:00.379Z,100881.44
2022-08-03T19:12:12.672Z,100879.73
2022-08-03T19:14:30.349Z,100881.60
2022-08-03T19:17:05.851Z,100880.48
2022-08-03T19:19:43.501Z,100881.03
2022-08-03T19:22:19.615Z,100882.05
2022-08-03T19:24:48.871Z,100882.17
2022-08-03T19:27:18.142Z,100882.30
2022-08-03T19:32:39.041Z,100879.67
2022-08-03T19:35:19.079Z,100883.42
2022-08-03T19:37:56.942Z,100882.69
2022-08-03T19:40:32.494Z,100885.27
2022-08-03T19:43:07.109Z,100885.69
2022-08-03T19:48:29.643Z,100885.81
2022-08-03T19:50:59.103Z,100884.34
2022-08-03T19:53:35.316Z,100888.09
2022-08-03T19:56:06.126Z,100882.77
2022-08-03T19:58:34.663Z,100883.96
2022-08-03T20:01:21.107Z,100886.63
2022-08-03T20:03:51.830Z,100887.77
2022-08-03T20:06:23.159Z,100884.78
2022-08-03T20:08:52.630Z,100888.22
2022-08-03T20:11:28.626Z,100886.60
2022-08-03T20:13:59.744Z,100887.67
2022-08-03T20:16:28.023Z,100886.45
2022-08-03T20:18:56.304Z,100885.71
2022-08-03T20:21:25.615Z,100882.94
2022-08-03T20:24:03.417Z,100885.67
2022-08-03T20:26:53.253Z,100883.50
2022-08-03T20:29:42.562Z,100888.70
2022-08-03T20:32:17.980Z,100888.77
2022-08-03T20:34:46.259Z,100891.60
2022-08-03T20:37:18.322Z,100892.42
2022-08-03T20:39:48.311Z,100891.41
2022-08-03T20:42:21.472Z,100893.20
2022-08-03T20:45:06.150Z,100891.67
2022-08-03T20:47:36.004Z,100887.69
2022-08-03T20:50:07.593Z,100889.96
2022-08-03T20:52:43.784Z,100884.55
2022-08-03T20:55:20.215Z,100887.59
2022-08-03T20:58:07.730Z,100892.38
2022-08-03T21:00:36.662Z,100891.59
2022-08-03T21:03:06.168Z,100897.95
2022-08-03T21:05:47.735Z,100897.16
2022-08-03T21:08:18.699Z,100901.59
2022-08-03T21:10:48.554Z,100904.17
2022-08-03T21:12:58.148Z,100840.67
2022-08-03T21:13:05.312Z,100820.73
2022-08-03T21:13:09.487Z,100881.52
2022-08-03T21:13:10.710Z,100885.98
2022-08-03T21:16:11.630Z,100904.97
2022-08-03T21:18:47.045Z,100906.94
2022-08-03T21:21:17.749Z,100908.36
2022-08-03T21:23:50.061Z,100909.01
2022-08-03T21:26:19.937Z,100913.98
2022-08-03T21:28:52.811Z,100915.41
2022-08-03T21:31:24.463Z,100913.32
2022-08-03T21:33:56.517Z,100915.09
2022-08-03T21:36:26.871Z,100912.81
2022-08-03T21:38:57.234Z,100912.34
2022-08-03T21:41:27.927Z,100916.52
2022-08-03T21:43:56.297Z,100915.52
2022-08-03T21:46:25.892Z,100918.01
2022-08-03T21:50:04.136Z,100921.42
2022-08-03T21:51:49.899Z,100926.02
2022-08-03T21:54:18.877Z,100922.05
2022-08-03T21:56:48.410Z,100926.45
2022-08-03T21:59:19.170Z,100925.53
2022-08-03T22:01:51.532Z,100929.70
2022-08-03T22:04:38.067Z,100932.05
2022-08-03T22:07:13.069Z,100930.41
2022-08-03T22:09:51.054Z,100932.05
2022-08-03T22:12:24.813Z,100931.70
2022-08-03T22:15:00.544Z,100932.18
2022-08-03T22:17:54.957Z,100932.32
2022-08-03T22:20:22.054Z,100928.44
2022-08-03T22:22:55.284Z,100926.92
2022-08-03T22:25:28.612Z,100927.50
2022-08-03T22:27:59.701Z,100926.13
2022-08-03T22:30:28.805Z,100930.15
2022-08-03T22:32:57.792Z,100928.12
2022-08-03T22:35:28.157Z,100929.95
2022-08-03T22:37:58.250Z,100929.61
2022-08-03T22:40:27.538Z,100927.91
2022-08-03T22:42:57.067Z,100930.14
2022-08-03T22:46:07.126Z,100929.84
2022-08-03T22:48:17.406Z,100928.77
2022-08-03T22:50:46.292Z,100929.26
2022-08-03T22:53:19.930Z,100929.65
2022-08-03T22:55:49.684Z,100926.52
2022-08-03T22:58:20.325Z,100925.79
2022-08-03T23:00:53.938Z,100927.67
2022-08-03T23:03:25.189Z,100927.00
2022-08-03T23:06:01.277Z,100924.98
2022-08-03T23:08:34.281Z,100925.18
2022-08-03T23:11:08.119Z,100927.72
2022-08-03T23:13:37.073Z,100930.07
2022-08-03T23:16:06.487Z,100926.99
2022-08-03T23:18:37.869Z,100923.66
2022-08-03T23:21:11.496Z,100917.39
2022-08-03T23:23:44.447Z,100919.33
2022-08-03T23:26:14.183Z,100920.54
2022-08-03T23:28:46.027Z,100914.53
2022-08-03T23:31:15.810Z,100919.41
2022-08-03T23:33:45.318Z,100917.67
2022-08-03T23:36:31.023Z,100914.58
2022-08-03T23:39:03.030Z,100918.98
2022-08-03T23:41:32.923Z,100914.61
2022-08-03T23:44:01.733Z,100915.79
2022-08-03T23:46:33.124Z,100919.56
2022-08-03T23:49:01.540Z,100919.63
2022-08-03T23:51:36.649Z,100915.10
2022-08-03T23:54:19.511Z,100916.77
2022-08-03T23:56:54.129Z,100912.57
2022-08-03T23:59:31.090Z,100909.49
